createdAt,value
2023-02-14T00:01:10.673Z,101416.44
2023-02-14T00:04:35.323Z,101415.56
2023-02-14T00:07:58.527Z,101412.91
2023-02-14T00:11:21.905Z,101412.88
2023-02-14T00:15:02.576Z,101423.22
2023-02-14T00:18:45.911Z,101424.13
2023-02-14T00:22:10.531Z,101436.13
2023-02-14T00:25:35.321Z,101436.13
2023-02-14T00:28:58.175Z,101438.69
2023-02-14T00:32:20.626Z,101441.28
2023-02-14T00:35:43.272Z,101444.75
2023-02-14T00:39:08.795Z,101441.28
2023-02-14T00:42:31.242Z,101436.97
2023-02-14T00:45:54.056Z,101443.00
2023-02-14T00:49:17.066Z,101452.44
2023-02-14T00:52:39.812Z,101460.09
2023-02-14T00:56:04.305Z,101463.50
2023-02-14T00:59:26.756Z,101469.47
2023-02-14T01:02:49.361Z,101480.59
2023-02-14T01:06:12.058Z,101475.41
2023-02-14T01:09:35.129Z,101446.94
2023-02-14T01:12:59.111Z,101479.66
2023-02-14T01:16:24.288Z,101483.06
2023-02-14T01:19:46.961Z,101483.94
2023-02-14T01:23:09.830Z,101492.44
2023-02-14T01:26:33.098Z,101494.13
2023-02-14T01:29:57.308Z,101492.31
2023-02-14T01:33:20.142Z,101500.84
2023-02-14T01:36:43.104Z,101498.28
2023-02-14T01:40:08.732Z,101482.75
2023-02-14T01:43:31.586Z,101511.06
2023-02-14T01:46:56.289Z,101504.19
2023-02-14T01:50:23.143Z,101504.09
2023-02-14T01:53:46.714Z,101527.25
2023-02-14T01:57:15.715Z,101504.88
2023-02-14T02:00:57.536Z,101506.66
2023-02-14T02:04:27.996Z,101509.19
2023-02-14T02:07:51.629Z,101522.09
2023-02-14T02:11:14.899Z,101530.72
2023-02-14T02:14:38.046Z,101541.81
2023-02-14T02:18:10.856Z,101544.41
2023-02-14T02:22:12.426Z,101550.31
2023-02-14T02:25:53.708Z,101558.84
2023-02-14T02:29:59.836Z,101557.06
2023-02-14T02:33:45.984Z,101539.84
2023-02-14T02:37:32.113Z,101537.28
2023-02-14T02:41:06.721Z,101539.78
2023-02-14T02:44:38.042Z,101546.69
2023-02-14T02:48:08.107Z,101556.91
2023-02-14T02:51:56.206Z,101573.25
2023-02-14T02:55:27.608Z,101581.88
2023-02-14T02:58:56.917Z,101588.69
2023-02-14T03:02:25.202Z,101594.63
2023-02-14T03:05:46.627Z,101608.25
2023-02-14T03:09:15.220Z,101615.88
2023-02-14T03:13:02.235Z,101581.25
2023-02-14T03:16:32.369Z,101607.97
2023-02-14T03:20:17.765Z,101612.22
2023-02-14T03:23:46.290Z,101614.78
2023-02-14T03:27:17.196Z,101621.59
2023-02-14T03:30:49.351Z,101632.72
2023-02-14T03:34:17.969Z,101637.88
2023-02-14T03:37:47.271Z,101634.34
2023-02-14T03:41:14.844Z,101642.97
2023-02-14T03:44:40.255Z,101645.56
2023-02-14T03:48:10.457Z,101642.25
2023-02-14T03:51:36.518Z,101632.09
2023-02-14T03:55:02.857Z,101654.63
2023-02-14T03:58:29.303Z,101659.88
2023-02-14T04:01:58.056Z,101617.53
2023-02-14T04:05:26.297Z,101672.69
2023-02-14T04:08:48.938Z,101674.31
2023-02-14T04:12:12.512Z,101694.00
2023-02-14T04:15:35.828Z,101689.78
2023-02-14T04:19:16.342Z,101706.06
2023-02-14T04:22:40.642Z,101718.88
2023-02-14T04:26:05.558Z,101717.09
2023-02-14T04:29:28.921Z,101726.47
2023-02-14T04:32:52.194Z,101719.53
2023-02-14T04:36:15.005Z,101706.63
2023-02-14T04:39:40.488Z,101704.06
2023-02-14T04:43:05.050Z,101708.34
2023-02-14T04:46:28.236Z,101728.09
2023-02-14T04:49:50.665Z,101723.84
2023-02-14T04:53:13.316Z,101715.06
2023-02-14T04:56:37.310Z,101756.47
2023-02-14T05:00:00.665Z,101753.84
2023-02-14T05:03:23.212Z,101747.81
2023-02-14T05:06:46.352Z,101752.03
2023-02-14T05:10:10.058Z,101738.34
2023-02-14T05:13:34.513Z,101749.50
2023-02-14T05:16:57.207Z,101749.59
2023-02-14T05:20:20.369Z,101757.41
2023-02-14T05:23:43.428Z,101760.84
2023-02-14T05:27:06.083Z,101756.66
2023-02-14T05:30:30.675Z,101768.66
2023-02-14T05:33:53.741Z,101769.47
2023-02-14T05:37:16.812Z,101759.22
2023-02-14T05:40:39.971Z,101771.13
2023-02-14T05:44:02.930Z,101784.88
2023-02-14T05:47:27.638Z,101798.59
2023-02-14T05:50:50.298Z,101800.38
2023-02-14T05:54:13.043Z,101783.22
2023-02-14T05:57:36.316Z,101777.13
2023-02-14T06:00:59.745Z,101774.66
2023-02-14T06:04:24.853Z,101782.41
2023-02-14T06:07:51.039Z,101784.97
2023-02-14T06:11:14.395Z,101787.63
2023-02-14T06:14:37.667Z,101779.03
2023-02-14T06:18:00.627Z,101784.22
2023-02-14T06:21:25.329Z,101792.91
2023-02-14T06:24:48.484Z,101794.56
2023-02-14T06:28:11.453Z,101807.63
2023-02-14T06:31:34.162Z,101811.13
2023-02-14T06:34:57.478Z,101822.34
2023-02-14T06:38:21.461Z,101831.91
2023-02-14T06:41:44.414Z,101837.09
2023-02-14T06:45:08.299Z,101838.00
2023-02-14T06:48:31.486Z,101855.22
2023-02-14T06:51:57.395Z,101861.13
2023-02-14T06:55:22.201Z,101877.50
2023-02-14T06:58:45.469Z,101865.34
2023-02-14T07:02:08.654Z,101888.50
2023-02-14T07:05:32.307Z,101898.75
2023-02-14T07:08:55.164Z,101893.50
2023-02-14T07:12:19.663Z,101899.50
2023-02-14T07:15:42.329Z,101912.31
2023-02-14T07:19:05.381Z,101922.66
2023-02-14T07:22:30.306Z,101927.75
2023-02-14T07:25:55.902Z,101924.25
2023-02-14T07:29:20.803Z,101918.25
2023-02-14T07:32:44.072Z,101907.81
2023-02-14T07:36:07.364Z,101930.31
2023-02-14T07:39:30.408Z,101916.53
2023-02-14T07:42:55.921Z,101924.44
2023-02-14T07:46:20.461Z,101935.69
2023-02-14T07:49:43.994Z,101933.19
2023-02-14T07:53:08.700Z,101935.06
2023-02-14T07:56:31.668Z,101943.78
2023-02-14T07:59:54.307Z,101939.59
2023-02-14T08:03:18.925Z,101945.81
2023-02-14T08:06:41.656Z,101953.63
2023-02-14T08:10:04.725Z,101965.81
2023-02-14T08:13:27.981Z,101965.09
2023-02-14T08:16:51.262Z,101956.59
2023-02-14T08:20:17.177Z,101967.91
2023-02-14T08:23:40.572Z,101965.41
2023-02-14T08:27:03.406Z,101940.28
2023-02-14T08:30:26.825Z,101987.91
2023-02-14T08:33:49.543Z,101982.78
2023-02-14T08:37:13.722Z,101984.66
2023-02-14T08:40:37.513Z,101993.28
2023-02-14T08:44:00.377Z,101987.38
2023-02-14T08:47:23.117Z,101989.16
2023-02-14T08:50:45.867Z,101987.50
2023-02-14T08:54:10.282Z,101995.34
2023-02-14T08:57:33.325Z,101993.69
2023-02-14T09:00:56.981Z,101994.69
2023-02-14T09:04:19.685Z,101986.09
2023-02-14T09:07:42.739Z,102012.03
2023-02-14T09:11:11.430Z,102022.44
2023-02-14T09:14:37.758Z,102022.47
2023-02-14T09:18:00.929Z,102044.97
2023-02-14T09:21:26.563Z,102025.94
2023-02-14T09:24:49.292Z,102045.13
2023-02-14T09:28:13.888Z,102057.19
2023-02-14T09:31:37.026Z,102051.25
2023-02-14T09:35:17.327Z,102057.38
2023-02-14T09:38:40.082Z,102051.38
2023-02-14T09:42:27.403Z,102038.47
2023-02-14T09:45:56.774Z,102050.63
2023-02-14T09:49:21.099Z,102051.53
2023-02-14T09:52:43.762Z,102049.91
2023-02-14T09:56:13.483Z,102051.63
2023-02-14T09:59:45.446Z,102054.19
2023-02-14T10:03:30.958Z,102060.31
2023-02-14T10:07:01.373Z,102062.09
2023-02-14T10:10:31.298Z,102044.88
2023-02-14T10:13:58.663Z,102058.69
2023-02-14T10:17:31.242Z,102062.19
2023-02-14T10:21:01.313Z,102063.94
2023-02-14T10:24:29.449Z,102065.72
2023-02-14T10:27:55.282Z,102066.59
2023-02-14T10:31:24.086Z,102078.69
2023-02-14T10:34:50.622Z,102070.91
2023-02-14T10:38:27.203Z,102077.84
2023-02-14T10:41:55.176Z,102077.03
2023-02-14T10:45:25.610Z,102077.91
2023-02-14T10:48:58.917Z,102078.78
2023-02-14T10:52:31.607Z,102090.94
2023-02-14T10:56:02.252Z,102085.78
2023-02-14T10:59:29.766Z,102082.31
2023-02-14T11:02:55.963Z,102095.28
2023-02-14T11:06:18.959Z,102089.22
2023-02-14T11:09:41.976Z,102097.84
2023-02-14T11:13:29.720Z,102086.66
2023-02-14T11:16:53.552Z,102088.38
2023-02-14T11:20:26.806Z,102093.59
2023-02-14T11:23:52.214Z,102097.03
2023-02-14T11:27:19.807Z,102095.34
2023-02-14T11:30:48.067Z,102093.63
2023-02-14T11:34:27.512Z,102091.03
2023-02-14T11:37:53.855Z,102091.06
2023-02-14T11:41:18.651Z,102102.31
2023-02-14T11:44:59.118Z,102092.81
2023-02-14T11:48:37.101Z,102110.97
2023-02-14T11:52:13.313Z,102102.34
2023-02-14T11:55:37.290Z,102102.34
2023-02-14T11:59:04.145Z,102102.41
2023-02-14T12:02:31.033Z,102105.00
2023-02-14T12:06:01.237Z,102100.69
2023-02-14T12:09:30.635Z,102084.25
2023-02-14T12:12:56.675Z,102079.97
2023-02-14T12:16:28.254Z,102095.53
2023-02-14T12:19:57.645Z,102081.72
2023-02-14T12:23:28.697Z,102080.88
2023-02-14T12:26:58.420Z,102089.50
2023-02-14T12:30:23.362Z,102058.41
2023-02-14T12:33:48.398Z,102091.25
2023-02-14T12:37:33.093Z,102092.97
2023-02-14T12:41:08.923Z,102080.00
2023-02-14T12:44:41.643Z,102079.16
2023-02-14T12:48:16.191Z,102085.19
2023-02-14T12:51:50.906Z,102081.75
2023-02-14T12:55:31.100Z,102099.03
2023-02-14T12:59:04.785Z,102087.81
2023-02-14T13:02:58.479Z,102093.88
2023-02-14T13:06:30.016Z,102099.91
2023-02-14T13:09:59.394Z,102066.22
2023-02-14T13:13:32.062Z,102070.53
2023-02-14T13:17:01.435Z,102110.31
2023-02-14T13:20:45.694Z,102104.25
2023-02-14T13:24:17.365Z,102110.28
2023-02-14T13:27:41.553Z,102113.72
2023-02-14T13:31:05.629Z,102114.59
2023-02-14T13:34:34.692Z,102111.16
2023-02-14T13:38:01.053Z,102108.56
2023-02-14T13:41:25.770Z,102110.28
2023-02-14T13:44:50.982Z,102096.47
2023-02-14T13:48:15.276Z,102103.34
2023-02-14T13:51:52.080Z,102105.94
2023-02-14T13:55:20.249Z,102113.69
2023-02-14T13:58:49.655Z,102127.56
2023-02-14T14:02:34.155Z,102125.81
2023-02-14T14:06:11.309Z,102105.94
2023-02-14T14:09:57.012Z,102120.66
2023-02-14T14:13:49.349Z,102124.09
2023-02-14T14:17:28.201Z,102124.97
2023-02-14T14:20:53.198Z,102127.53
2023-02-14T14:24:25.175Z,102118.00
2023-02-14T14:27:49.559Z,102132.66
2023-02-14T14:31:15.735Z,102116.22
2023-02-14T14:34:38.963Z,102131.75
2023-02-14T14:38:03.763Z,102127.38
2023-02-14T14:41:31.648Z,102129.97
2023-02-14T14:44:59.002Z,102125.66
2023-02-14T14:48:28.616Z,102134.25
2023-02-14T14:51:51.998Z,102139.41
2023-02-14T14:55:22.424Z,102109.09
2023-02-14T14:58:45.698Z,102135.03
2023-02-14T15:02:24.023Z,102118.53
2023-02-14T15:05:49.139Z,102131.47
2023-02-14T15:09:18.435Z,102123.59
2023-02-14T15:12:59.011Z,102128.75
2023-02-14T15:16:29.884Z,102121.78
2023-02-14T15:19:57.285Z,102132.97
2023-02-14T15:23:24.178Z,102137.22
2023-02-14T15:26:50.973Z,102138.00
2023-02-14T15:30:29.673Z,102149.16
2023-02-14T15:33:53.020Z,102144.84
2023-02-14T15:37:18.441Z,102145.63
2023-02-14T15:40:42.430Z,102148.22
2023-02-14T15:44:05.793Z,102156.81
2023-02-14T15:47:28.755Z,102159.44
2023-02-14T15:50:54.888Z,102140.34
2023-02-14T15:54:31.488Z,102156.78
2023-02-14T15:57:58.731Z,102148.13
2023-02-14T16:01:23.474Z,102148.97
2023-02-14T16:04:46.688Z,102161.00
2023-02-14T16:08:30.025Z,102141.94
2023-02-14T16:11:54.726Z,102160.94
2023-02-14T16:15:22.356Z,102157.47
2023-02-14T16:18:48.132Z,102154.81
2023-02-14T16:22:13.533Z,102157.44
2023-02-14T16:25:36.595Z,102156.53
2023-02-14T16:29:00.587Z,102161.69
2023-02-14T16:32:24.959Z,102166.88
2023-02-14T16:35:47.837Z,102156.44
2023-02-14T16:39:17.858Z,102184.06
2023-02-14T16:42:42.253Z,102171.97
2023-02-14T16:46:07.065Z,102182.34
2023-02-14T16:49:30.731Z,102178.81
2023-02-14T16:52:56.583Z,102183.16
2023-02-14T16:56:23.309Z,102183.19
2023-02-14T16:59:47.091Z,102178.75
2023-02-14T17:03:12.093Z,102194.28
2023-02-14T17:06:38.333Z,102188.25
2023-02-14T17:10:07.127Z,102190.84
2023-02-14T17:13:34.515Z,102191.69
2023-02-14T17:16:58.784Z,102167.44
2023-02-14T17:20:25.125Z,102185.66
2023-02-14T17:23:48.083Z,102174.34
2023-02-14T17:27:11.761Z,102186.47
2023-02-14T17:30:34.630Z,102174.34
2023-02-14T17:33:57.988Z,102183.03
2023-02-14T17:37:22.701Z,102177.00
2023-02-14T17:40:45.476Z,102173.53
2023-02-14T17:44:09.013Z,102170.06
2023-02-14T17:47:33.106Z,102175.25
2023-02-14T17:50:56.883Z,102159.69
2023-02-14T17:54:22.095Z,102168.31
2023-02-14T17:57:44.852Z,102166.56
2023-02-14T18:01:10.494Z,102163.13
2023-02-14T18:04:35.484Z,102157.88
2023-02-14T18:07:58.526Z,102166.56
2023-02-14T18:11:23.555Z,102160.47
2023-02-14T18:14:46.531Z,102163.00
2023-02-14T18:18:11.526Z,102158.72
2023-02-14T18:21:36.751Z,102158.69
2023-02-14T18:24:59.698Z,102163.84
2023-02-14T18:28:24.698Z,102156.06
2023-02-14T18:31:47.715Z,102158.69
2023-02-14T18:35:10.649Z,102158.69
2023-02-14T18:38:33.779Z,102163.91
2023-02-14T18:42:00.531Z,102158.75
2023-02-14T18:45:24.973Z,102147.47
2023-02-14T18:48:47.782Z,102146.66
2023-02-14T18:52:10.841Z,102151.75
2023-02-14T18:55:33.601Z,102138.72
2023-02-14T18:58:59.730Z,102139.59
2023-02-14T19:02:24.250Z,102147.34
2023-02-14T19:05:46.979Z,102129.13
2023-02-14T19:09:12.412Z,102136.94
2023-02-14T19:12:35.781Z,102142.91
2023-02-14T19:15:59.053Z,102124.66
2023-02-14T19:19:23.738Z,102137.69
2023-02-14T19:22:46.806Z,102137.69
2023-02-14T19:26:14.781Z,102131.66
2023-02-14T19:29:38.970Z,102132.50
2023-02-14T19:33:01.843Z,102129.94
2023-02-14T19:36:26.840Z,102133.38
2023-02-14T19:39:50.199Z,102123.09
2023-02-14T19:43:13.368Z,102120.53
2023-02-14T19:46:38.637Z,102120.50
2023-02-14T19:50:02.064Z,102121.38
2023-02-14T19:53:26.552Z,102124.84
2023-02-14T19:56:49.820Z,102113.63
2023-02-14T20:00:14.412Z,102123.13
2023-02-14T20:03:38.578Z,102117.97
2023-02-14T20:07:01.362Z,102121.41
2023-02-14T20:10:26.027Z,102120.59
2023-02-14T20:13:49.371Z,102114.53
2023-02-14T20:17:15.561Z,102110.22
2023-02-14T20:20:52.138Z,102115.34
2023-02-14T20:24:17.965Z,102112.72
2023-02-14T20:27:42.624Z,102114.41
2023-02-14T20:31:11.751Z,102117.00
2023-02-14T20:34:34.581Z,102117.84
2023-02-14T20:37:57.592Z,102117.84
2023-02-14T20:41:20.861Z,102115.22
2023-02-14T20:44:46.745Z,102117.84
2023-02-14T20:48:10.151Z,102110.06
2023-02-14T20:51:33.120Z,102101.41
2023-02-14T20:54:56.380Z,102104.84
2023-02-14T20:58:19.339Z,102113.47
2023-02-14T21:01:43.861Z,102116.91
2023-02-14T21:05:07.207Z,102109.16
2023-02-14T21:08:30.167Z,102115.16
2023-02-14T21:11:54.556Z,102109.97
2023-02-14T21:15:17.822Z,102108.28
2023-02-14T21:18:43.555Z,102108.25
2023-02-14T21:22:06.511Z,102099.56
2023-02-14T21:25:29.578Z,102093.53
2023-02-14T21:28:52.336Z,102103.91
2023-02-14T21:32:15.594Z,102108.19
2023-02-14T21:35:41.124Z,102101.28
2023-02-14T21:39:06.852Z,102102.09
2023-02-14T21:42:29.503Z,102079.63
2023-02-14T21:45:55.517Z,102080.47
2023-02-14T21:49:36.003Z,102093.41
2023-02-14T21:53:00.197Z,102104.63
2023-02-14T21:56:23.462Z,102096.00
2023-02-14T21:59:46.628Z,102079.53
2023-02-14T22:03:11.655Z,102089.94
2023-02-14T22:06:37.248Z,102084.75
2023-02-14T22:10:02.665Z,102094.19
2023-02-14T22:13:26.448Z,102085.59
2023-02-14T22:16:49.822Z,102087.22
2023-02-14T22:20:14.113Z,102088.13
2023-02-14T22:23:37.478Z,102082.94
2023-02-14T22:27:01.870Z,102085.56
2023-02-14T22:30:25.576Z,102084.72
2023-02-14T22:33:50.344Z,102089.84
2023-02-14T22:37:13.526Z,102076.09
2023-02-14T22:40:36.474Z,102069.19
2023-02-14T22:44:00.721Z,102076.09
2023-02-14T22:47:23.831Z,102073.47
2023-02-14T22:50:49.703Z,102076.06
2023-02-14T22:54:14.559Z,102077.78
2023-02-14T22:57:37.104Z,102063.94
2023-02-14T23:01:01.301Z,102062.19
2023-02-14T23:04:25.498Z,102077.78
2023-02-14T23:07:48.442Z,102078.59
2023-02-14T23:11:13.249Z,102073.44
2023-02-14T23:14:53.717Z,102069.97
2023-02-14T23:18:35.521Z,102077.69
2023-02-14T23:21:59.193Z,102065.66
2023-02-14T23:25:22.259Z,102076.84
2023-02-14T23:28:45.444Z,102065.63
2023-02-14T23:32:09.536Z,102059.56
2023-02-14T23:35:34.002Z,102060.38
2023-02-14T23:38:56.657Z,102067.34
2023-02-14T23:42:20.244Z,102069.00
2023-02-14T23:45:43.244Z,102073.31
2023-02-14T23:49:06.880Z,102074.22
2023-02-14T23:52:31.475Z,102073.34
2023-02-14T23:55:54.958Z,102035.28
2023-02-14T23:59:19.351Z,102067.38
